Time;durP1;ratioP1;P1;durP2;ratioP2;P2;SDS_P1;SDS_P2;PMS_P1;PMS_P2;Temp;Humidity;BMP_temperature;BMP_pressure;BME280_temperature;BME280_humidity;BME280_pressure;Samples;Min_cycle;Max_cycle;Signal;HPM_P1;HPM_P2
2024/04/21 00:00:57;;;;;;;1.30;0.90;;;17.80;50.70;;;;;;5566655;25;20215;-85
2024/04/21 00:03:24;;;;;;;2.42;1.08;;;17.90;50.50;;;;;;5535738;25;20207;-85
2024/04/21 00:05:50;;;;;;;2.88;1.05;;;17.80;50.70;;;;;;5568308;25;20740;-86
2024/04/21 00:08:15;;;;;;;2.28;1.20;;;17.80;50.50;;;;;;5534873;25;20211;-85
2024/04/21 00:10:41;;;;;;;1.35;0.90;;;17.90;50.80;;;;;;5535296;25;20606;-84
2024/04/21 00:13:08;;;;;;;1.42;1.00;;;17.80;50.60;;;;;;5504217;25;20608;-87
2024/04/21 00:15:34;;;;;;;2.80;0.90;;;17.80;50.70;;;;;;5535328;25;20253;-86
2024/04/21 00:18:00;;;;;;;1.73;1.00;;;17.80;50.80;;;;;;5503948;25;20666;-86
2024/04/21 00:20:25;;;;;;;1.80;1.00;;;17.80;50.80;;;;;;5535358;25;20541;-85
2024/04/21 00:22:54;;;;;;;2.15;1.13;;;17.80;50.90;;;;;;5534796;25;20258;-86
2024/04/21 00:25:21;;;;;;;2.40;1.05;;;17.80;50.80;;;;;;5565721;25;20302;-84
2024/04/21 00:27:47;;;;;;;2.00;1.17;;;17.80;50.90;;;;;;5533064;25;20554;-86
2024/04/21 00:30:14;;;;;;;2.22;1.10;;;17.80;51.00;;;;;;5534921;25;20322;-86
2024/04/21 00:32:40;;;;;;;2.00;1.00;;;17.80;50.70;;;;;;5504080;25;20258;-85
2024/04/21 00:35:06;;;;;;;1.45;0.95;;;17.80;51.60;;;;;;5504121;25;20219;-86
2024/04/21 00:37:31;;;;;;;1.20;0.93;;;17.80;50.90;;;;;;5504071;25;20241;-85
2024/04/21 00:39:58;;;;;;;1.67;1.02;;;17.80;50.90;;;;;;5503660;25;20215;-85
2024/04/21 00:42:25;;;;;;;3.13;1.30;;;17.80;50.90;;;;;;5503995;25;20215;-86
2024/04/21 00:44:51;;;;;;;1.08;0.85;;;17.80;50.70;;;;;;5534993;25;20207;-86
2024/04/21 00:47:17;;;;;;;2.25;0.90;;;17.80;50.80;;;;;;5504093;25;20279;-87
2024/04/21 00:49:43;;;;;;;1.98;1.17;;;17.80;50.80;;;;;;5503634;25;20219;-85
2024/04/21 00:52:09;;;;;;;3.03;1.13;;;17.80;50.80;;;;;;5504156;25;20219;-86
2024/04/21 00:54:35;;;;;;;2.22;1.05;;;17.80;50.70;;;;;;5564826;25;20326;-86
2024/04/21 00:57:02;;;;;;;1.83;1.23;;;17.80;50.90;;;;;;5534588;25;20540;-86
2024/04/21 00:59:27;;;;;;;1.38;1.00;;;17.70;50.80;;;;;;5549537;25;20318;-85
2024/04/21 01:01:55;;;;;;;1.70;0.90;;;17.80;51.00;;;;;;5467163;26;20231;-84
2024/04/21 01:04:21;;;;;;;1.83;1.00;;;17.80;50.90;;;;;;5467225;26;20232;-86
2024/04/21 01:06:48;;;;;;;1.67;1.00;;;17.70;50.90;;;;;;5497489;26;20216;-85
2024/04/21 01:09:14;;;;;;;1.45;0.90;;;17.80;50.90;;;;;;5466009;26;20268;-86
2024/04/21 01:11:48;;;;;;;2.17;0.80;;;17.80;51.00;;;;;;5528335;26;20745;-86
2024/04/21 01:14:14;;;;;;;1.27;0.98;;;17.70;51.00;;;;;;5467155;26;20242;-86
2024/04/21 01:16:40;;;;;;;1.13;0.95;;;17.80;51.00;;;;;;5466968;26;20223;-86
2024/04/21 01:19:06;;;;;;;1.83;1.10;;;17.70;50.90;;;;;;5497403;26;20267;-86
2024/04/21 01:21:32;;;;;;;2.05;0.80;;;17.80;50.90;;;;;;5497117;26;20307;-85
2024/04/21 01:23:58;;;;;;;2.40;0.93;;;17.70;51.00;;;;;;5497598;26;20216;-86
2024/04/21 01:26:25;;;;;;;1.67;0.98;;;17.70;51.60;;;;;;5496897;26;20293;-86
2024/04/21 01:28:51;;;;;;;2.50;1.02;;;17.70;50.90;;;;;;5496678;26;20266;-87
2024/04/21 01:31:17;;;;;;;1.25;0.95;;;17.70;50.70;;;;;;5466173;26;20215;-85
2024/04/21 01:33:43;;;;;;;2.03;0.93;;;17.80;50.90;;;;;;5527411;26;20311;-86
2024/04/21 01:36:09;;;;;;;1.05;0.90;;;17.80;50.90;;;;;;5497171;26;20618;-86
2024/04/21 01:38:35;;;;;;;1.17;0.98;;;17.80;51.00;;;;;;5496587;26;20224;-85
2024/04/21 01:41:01;;;;;;;1.05;0.80;;;17.70;51.00;;;;;;5527836;26;20219;-86
2024/04/21 01:43:27;;;;;;;1.77;1.13;;;17.80;50.90;;;;;;5467248;26;20242;-86
2024/04/21 01:45:53;;;;;;;1.05;0.95;;;17.80;50.80;;;;;;5466538;26;20303;-85
2024/04/21 01:48:19;;;;;;;1.88;1.10;;;17.80;50.70;;;;;;5465896;26;20223;-87
2024/04/21 01:50:46;;;;;;;2.35;1.08;;;17.80;50.90;;;;;;5496457;26;20683;-85
2024/04/21 01:53:12;;;;;;;2.15;1.08;;;17.80;50.90;;;;;;5466838;26;20256;-85
2024/04/21 01:55:39;;;;;;;2.28;1.10;;;17.80;50.90;;;;;;5465123;26;20784;-86
2024/04/21 01:58:05;;;;;;;2.13;1.10;;;17.80;50.90;;;;;;5466426;26;20269;-85
2024/04/21 02:00:33;;;;;;;2.90;1.13;;;17.70;50.90;;;;;;5467654;26;20267;-85
2024/04/21 02:03:05;;;;;;;2.47;1.00;;;17.70;51.00;;;;;;5467371;26;20220;-85
2024/04/21 02:05:30;;;;;;;2.50;1.10;;;17.70;50.80;;;;;;5552327;25;20281;-85
2024/04/21 02:07:57;;;;;;;2.75;1.15;;;17.70;50.80;;;;;;5502829;25;20222;-85
2024/04/21 02:10:23;;;;;;;2.20;1.20;;;17.80;51.00;;;;;;5502350;25;20215;-86
2024/04/21 02:12:49;;;;;;;1.48;1.15;;;17.70;50.80;;;;;;5564685;25;20211;-85
2024/04/21 02:15:14;;;;;;;1.73;1.02;;;17.70;50.80;;;;;;5502916;25;20215;-86
2024/04/21 02:17:41;;;;;;;2.17;1.00;;;17.80;51.00;;;;;;5533968;25;20269;-86
2024/04/21 02:20:08;;;;;;;1.55;0.82;;;17.70;51.10;;;;;;5533575;25;20215;-86
2024/04/21 02:22:42;;;;;;;1.83;0.85;;;17.70;51.00;;;;;;5503128;25;20633;-86
2024/04/21 02:25:15;;;;;;;2.35;1.35;;;17.70;51.10;;;;;;5503102;25;20261;-86
2024/04/21 02:27:41;;;;;;;0.93;0.77;;;17.70;51.10;;;;;;5471383;25;20298;-86
2024/04/21 02:30:07;;;;;;;1.05;0.98;;;17.70;51.20;;;;;;5501853;25;20219;-86
2024/04/21 02:32:34;;;;;;;2.15;1.13;;;17.70;51.00;;;;;;5502606;25;20231;-85
2024/04/21 02:35:02;;;;;;;1.20;1.10;;;17.70;51.20;;;;;;5487418;26;20270;-85
2024/04/21 02:37:29;;;;;;;2.38;1.23;;;17.70;51.00;;;;;;5465581;26;20268;-85
2024/04/21 02:39:54;;;;;;;1.30;0.90;;;17.70;50.90;;;;;;5508381;25;20232;-85
2024/04/21 02:42:20;;;;;;;1.33;0.90;;;17.70;51.00;;;;;;5533323;25;20256;-86
2024/04/21 02:44:48;;;;;;;1.77;0.93;;;17.70;51.00;;;;;;5502123;25;20297;-85
2024/04/21 02:47:16;;;;;;;1.77;1.30;;;17.70;50.90;;;;;;5501213;25;20261;-87
2024/04/21 02:49:42;;;;;;;1.23;0.90;;;17.70;51.20;;;;;;5495210;26;20224;-85
2024/04/21 02:52:08;;;;;;;1.42;1.10;;;17.70;51.10;;;;;;5468078;26;20220;-86
2024/04/21 02:54:35;;;;;;;1.45;1.10;;;17.70;51.20;;;;;;5468490;26;20234;-86
2024/04/21 02:57:01;;;;;;;1.23;1.02;;;17.60;51.00;;;;;;5499728;26;20288;-87
2024/04/21 02:59:27;;;;;;;1.98;1.30;;;17.70;51.00;;;;;;5461155;26;20217;-86
2024/04/21 03:01:53;;;;;;;1.55;1.00;;;17.60;51.10;;;;;;5401869;26;20282;-85
2024/04/21 03:04:20;;;;;;;2.60;1.10;;;17.70;51.20;;;;;;5402550;26;20576;-85
2024/04/21 03:06:51;;;;;;;3.15;1.15;;;17.60;51.10;;;;;;5437071;26;20274;-86
2024/04/21 03:09:16;;;;;;;1.10;1.00;;;17.70;51.20;;;;;;5408038;26;20243;-86
2024/04/21 03:11:45;;;;;;;1.75;1.10;;;17.70;51.20;;;;;;5437136;26;20219;-85
2024/04/21 03:14:15;;;;;;;2.05;0.98;;;17.70;51.20;;;;;;5468008;26;20562;-84
2024/04/21 03:16:42;;;;;;;1.55;1.05;;;17.70;51.20;;;;;;5467860;26;20253;-86
2024/04/21 03:19:10;;;;;;;1.30;0.90;;;17.70;51.20;;;;;;5498192;26;20220;-86
2024/04/21 03:21:36;;;;;;;1.27;1.02;;;17.70;51.10;;;;;;5467461;26;20228;-84
2024/04/21 03:24:02;;;;;;;1.55;1.15;;;17.70;51.20;;;;;;5467670;26;20370;-87
2024/04/21 03:26:28;;;;;;;1.35;1.00;;;17.70;50.90;;;;;;5437803;26;20224;-85
2024/04/21 03:28:54;;;;;;;3.08;1.00;;;17.70;51.00;;;;;;5467184;26;20271;-85
2024/04/21 03:31:19;;;;;;;1.25;0.80;;;17.70;51.00;;;;;;5524664;25;20219;-86
2024/04/21 03:33:46;;;;;;;1.77;0.98;;;17.70;51.20;;;;;;5505029;25;20222;-86
2024/04/21 03:36:14;;;;;;;1.95;1.20;;;17.60;51.20;;;;;;5535853;25;20211;-85
2024/04/21 03:38:40;;;;;;;1.80;1.10;;;17.70;51.00;;;;;;5536112;25;20339;-85
2024/04/21 03:41:06;;;;;;;1.38;1.08;;;17.70;51.20;;;;;;5504901;25;20215;-85
2024/04/21 03:43:32;;;;;;;1.00;0.88;;;17.60;51.20;;;;;;5505957;25;20237;-86
2024/04/21 03:45:58;;;;;;;1.48;1.00;;;17.60;51.20;;;;;;5504882;25;20215;-85
2024/04/21 03:48:28;;;;;;;0.95;0.82;;;17.60;51.00;;;;;;5566929;25;20698;-84
2024/04/21 03:50:54;;;;;;;1.45;1.10;;;17.70;51.70;;;;;;5535700;25;20259;-87
2024/04/21 03:53:21;;;;;;;1.23;0.95;;;17.70;51.20;;;;;;5535499;25;20261;-86
2024/04/21 03:55:48;;;;;;;1.90;1.00;;;17.60;51.20;;;;;;5535442;25;20271;-85
2024/04/21 03:58:13;;;;;;;1.60;1.08;;;17.70;51.10;;;;;;5505258;25;20250;-85
2024/04/21 04:00:39;;;;;;;1.88;1.08;;;17.60;51.00;;;;;;5535776;25;20215;-86
2024/04/21 04:03:06;;;;;;;1.50;1.10;;;17.60;51.20;;;;;;5505215;25;20223;-85
2024/04/21 04:05:32;;;;;;;1.33;0.98;;;17.70;51.20;;;;;;5535920;25;20211;-87
2024/04/21 04:08:01;;;;;;;1.92;1.10;;;17.60;51.10;;;;;;5504325;25;20257;-86
2024/04/21 04:10:27;;;;;;;1.40;0.82;;;17.60;51.10;;;;;;5536824;25;20242;-85
2024/04/21 04:12:55;;;;;;;1.77;1.15;;;17.60;51.00;;;;;;5568439;25;20261;-85
2024/04/21 04:15:20;;;;;;;2.08;0.85;;;17.70;51.10;;;;;;5504355;25;20219;-86
2024/04/21 04:17:46;;;;;;;2.30;0.80;;;17.70;51.00;;;;;;5566535;25;20306;-86
2024/04/21 04:20:12;;;;;;;2.25;1.30;;;17.60;51.20;;;;;;5504542;25;20230;-85
2024/04/21 04:22:39;;;;;;;1.55;1.10;;;17.70;51.10;;;;;;5566216;25;20215;-85
2024/04/21 04:25:07;;;;;;;1.60;0.93;;;17.70;51.10;;;;;;5530357;25;20694;-85
2024/04/21 04:27:33;;;;;;;1.95;1.05;;;17.70;51.20;;;;;;5528104;26;20582;-86
2024/04/21 04:29:59;;;;;;;2.55;1.20;;;17.60;51.00;;;;;;5497608;26;20216;-85
2024/04/21 04:32:28;;;;;;;1.38;1.10;;;17.60;51.20;;;;;;5497437;26;20311;-86
2024/04/21 04:34:53;;;;;;;1.30;0.95;;;17.60;51.20;;;;;;5498611;26;20216;-84
2024/04/21 04:37:20;;;;;;;1.15;1.00;;;17.60;51.20;;;;;;5467103;26;20539;-86
2024/04/21 04:39:46;;;;;;;1.35;1.08;;;17.60;51.20;;;;;;5467877;26;20262;-84
2024/04/21 04:42:11;;;;;;;1.08;0.90;;;17.60;51.20;;;;;;5497792;26;20220;-85
2024/04/21 04:44:38;;;;;;;1.65;1.00;;;17.60;51.10;;;;;;5497895;26;20260;-84
2024/04/21 04:47:05;;;;;;;1.65;1.17;;;17.60;51.10;;;;;;5466939;26;20246;-85
2024/04/21 04:49:31;;;;;;;1.67;1.20;;;17.60;51.30;;;;;;5528968;26;20319;-85
2024/04/21 04:51:58;;;;;;;1.20;0.85;;;17.70;51.20;;;;;;5467307;26;20220;-86
2024/04/21 04:54:24;;;;;;;1.10;1.00;;;17.60;51.20;;;;;;5467073;26;20215;-85
2024/04/21 04:56:57;;;;;;;1.83;1.00;;;17.70;51.20;;;;;;5466576;26;20238;-85
2024/04/21 04:59:28;;;;;;;1.30;1.10;;;17.60;51.30;;;;;;5466544;26;20259;-85
2024/04/21 05:01:55;;;;;;;2.15;0.95;;;17.60;51.10;;;;;;5437520;26;20611;-84
2024/04/21 05:04:21;;;;;;;1.23;0.95;;;17.60;51.20;;;;;;5497408;26;20699;-86
2024/04/21 05:06:46;;;;;;;1.80;0.93;;;17.60;51.40;;;;;;5497088;26;20272;-85
2024/04/21 05:09:13;;;;;;;1.00;0.90;;;17.50;51.30;;;;;;5497434;26;20314;-85
2024/04/21 05:11:39;;;;;;;1.52;1.00;;;17.60;51.30;;;;;;5467081;26;20220;-85
2024/04/21 05:14:05;;;;;;;3.45;1.15;;;17.60;51.30;;;;;;5465185;26;20259;-86
2024/04/21 05:16:31;;;;;;;1.15;1.05;;;17.60;51.20;;;;;;5497814;26;20258;-86
2024/04/21 05:18:56;;;;;;;2.15;1.10;;;17.60;51.20;;;;;;5466659;26;20693;-86
2024/04/21 05:21:22;;;;;;;1.75;1.17;;;17.60;51.20;;;;;;5466319;26;20216;-86
2024/04/21 05:23:48;;;;;;;1.80;1.10;;;17.60;51.20;;;;;;5467474;26;20304;-85
2024/04/21 05:26:14;;;;;;;1.40;1.00;;;17.60;51.20;;;;;;5515148;25;20235;-85
2024/04/21 05:28:45;;;;;;;1.90;1.13;;;17.60;51.30;;;;;;5565654;25;20758;-85
2024/04/21 05:31:12;;;;;;;2.17;1.02;;;17.60;51.20;;;;;;5472805;25;20226;-85
2024/04/21 05:33:39;;;;;;;1.45;0.80;;;17.60;51.30;;;;;;5504632;25;20245;-85
2024/04/21 05:36:07;;;;;;;2.30;0.88;;;17.60;51.20;;;;;;5535332;25;20219;-85
2024/04/21 05:38:33;;;;;;;1.20;1.00;;;17.60;51.40;;;;;;5472788;25;20253;-86
2024/04/21 05:41:00;;;;;;;1.42;0.70;;;17.60;51.20;;;;;;5502199;25;20215;-86
2024/04/21 05:43:27;;;;;;;1.17;0.98;;;17.60;51.40;;;;;;5502390;25;20222;-87
2024/04/21 05:46:01;;;;;;;1.38;1.00;;;17.60;51.40;;;;;;5502551;25;20219;-87
2024/04/21 05:48:28;;;;;;;2.63;1.20;;;17.60;51.30;;;;;;5471809;25;20246;-87
2024/04/21 05:50:56;;;;;;;1.50;1.00;;;17.60;51.20;;;;;;5471312;25;20227;-86
2024/04/21 05:53:25;;;;;;;1.55;0.90;;;17.60;51.30;;;;;;5502434;25;20211;-87
2024/04/21 05:55:52;;;;;;;1.05;0.88;;;17.60;51.30;;;;;;5427727;26;20327;-87
2024/04/21 05:58:20;;;;;;;2.92;1.10;;;17.60;51.20;;;;;;5458186;26;20233;-85
2024/04/21 06:00:46;;;;;;;0.98;0.82;;;17.60;51.20;;;;;;5459114;26;20303;-86
2024/04/21 06:03:12;;;;;;;1.42;1.05;;;17.60;51.20;;;;;;5457890;26;20229;-86
2024/04/21 06:05:39;;;;;;;1.75;1.10;;;17.60;51.20;;;;;;5458701;26;20259;-86
2024/04/21 06:08:05;;;;;;;2.05;1.10;;;17.60;51.20;;;;;;5458783;26;20217;-86
2024/04/21 06:10:31;;;;;;;1.25;1.15;;;17.60;51.30;;;;;;5458877;26;20409;-86
2024/04/21 06:12:57;;;;;;;1.20;1.10;;;17.60;51.10;;;;;;5458344;26;20325;-86
2024/04/21 06:15:24;;;;;;;1.00;1.00;;;17.60;51.10;;;;;;5458626;26;20308;-85
2024/04/21 06:17:50;;;;;;;1.60;1.08;;;17.60;51.20;;;;;;5466942;26;20216;-86
2024/04/21 06:20:16;;;;;;;1.70;0.88;;;17.60;51.30;;;;;;5494917;26;20396;-85
2024/04/21 06:22:42;;;;;;;1.33;1.00;;;17.60;51.20;;;;;;5494744;26;20255;-85
2024/04/21 06:25:08;;;;;;;4.63;1.10;;;17.60;51.40;;;;;;5462925;26;20258;-86
2024/04/21 06:27:36;;;;;;;1.95;1.02;;;17.60;51.20;;;;;;5465809;26;20228;-85
2024/04/21 06:30:05;;;;;;;1.10;1.00;;;17.70;51.30;;;;;;5436086;26;20220;-86
2024/04/21 06:32:31;;;;;;;0.98;0.98;;;17.70;51.20;;;;;;5503235;25;20309;-85
2024/04/21 06:34:57;;;;;;;0.80;0.80;;;17.60;51.10;;;;;;5504156;25;20223;-86
2024/04/21 06:37:23;;;;;;;1.65;0.88;;;17.60;51.20;;;;;;5504654;25;20211;-85
2024/04/21 06:39:52;;;;;;;1.52;1.13;;;17.60;51.30;;;;;;5534875;25;20291;-87
2024/04/21 06:42:18;;;;;;;2.13;1.00;;;17.60;51.20;;;;;;5503144;25;20223;-86
2024/04/21 06:44:46;;;;;;;2.13;1.13;;;17.70;51.30;;;;;;5503577;25;20213;-86
2024/04/21 06:47:13;;;;;;;2.10;1.20;;;17.60;51.20;;;;;;5533734;25;20258;-86
2024/04/21 06:49:41;;;;;;;1.08;0.93;;;17.60;51.20;;;;;;5534036;25;20310;-85
2024/04/21 06:52:07;;;;;;;1.40;1.00;;;17.70;51.20;;;;;;5535877;25;20858;-85
2024/04/21 06:54:32;;;;;;;3.95;1.40;;;17.60;51.20;;;;;;5502064;25;20227;-86
2024/04/21 06:57:00;;;;;;;1.70;0.98;;;17.70;51.20;;;;;;5536548;25;20253;-86
2024/04/21 06:59:27;;;;;;;3.55;1.45;;;17.70;51.20;;;;;;5504896;25;20207;-86
2024/04/21 07:02:02;;;;;;;22.25;2.60;;;17.70;51.30;;;;;;5477992;25;20222;-85
2024/04/21 07:04:32;;;;;;;53.90;4.93;;;17.70;51.30;;;;;;5509870;25;20226;-85
2024/04/21 07:07:07;;;;;;;47.92;4.05;;;17.70;51.40;;;;;;5509780;25;20223;-86
2024/04/21 07:09:39;;;;;;;64.85;5.50;;;17.60;51.50;;;;;;5512730;25;20267;-86
2024/04/21 07:12:10;;;;;;;40.08;3.80;;;17.70;51.30;;;;;;5540691;25;20226;-86
2024/04/21 07:14:36;;;;;;;32.25;3.40;;;17.70;51.20;;;;;;5538643;25;20219;-85
2024/04/21 07:17:04;;;;;;;28.55;2.65;;;17.80;51.20;;;;;;5508925;25;20262;-85
2024/04/21 07:19:30;;;;;;;34.88;2.70;;;17.80;51.10;;;;;;5537110;25;20685;-86
2024/04/21 07:22:01;;;;;;;19.90;2.83;;;17.70;51.40;;;;;;5534492;25;20246;-86
2024/04/21 07:24:28;;;;;;;16.63;1.80;;;17.80;50.90;;;;;;5507694;25;20223;-86
2024/04/21 07:26:53;;;;;;;9.82;2.00;;;17.90;50.60;;;;;;5534695;25;20688;-85
2024/04/21 07:29:19;;;;;;;15.63;1.90;;;17.90;50.80;;;;;;5502989;25;20697;-85
2024/04/21 07:31:48;;;;;;;16.27;2.00;;;17.90;50.80;;;;;;5504687;25;20244;-85
2024/04/21 07:34:13;;;;;;;15.10;2.28;;;18.00;50.80;;;;;;5503028;25;20219;-85
2024/04/21 07:36:39;;;;;;;10.52;1.60;;;18.00;50.40;;;;;;5533859;25;20215;-86
2024/04/21 07:39:06;;;;;;;9.63;1.55;;;18.10;50.20;;;;;;5535578;25;20634;-85
2024/04/21 07:41:34;;;;;;;7.63;1.58;;;18.10;50.70;;;;;;5534371;25;20258;-85
2024/04/21 07:44:00;;;;;;;10.50;2.03;;;18.10;50.20;;;;;;5564925;25;20242;-87
2024/04/21 07:46:25;;;;;;;12.90;1.73;;;18.10;50.20;;;;;;5563955;25;20219;-88
2024/04/21 07:48:52;;;;;;;10.75;1.80;;;18.10;50.10;;;;;;5563957;25;20257;-85
2024/04/21 07:51:30;;;;;;;7.50;1.45;;;18.10;50.20;;;;;;5564564;25;20215;-86
2024/04/21 07:54:19;;;;;;;10.57;1.50;;;18.20;49.20;;;;;;5474156;25;20240;-86
2024/04/21 07:57:13;;;;;;;10.43;1.67;;;18.30;49.30;;;;;;5490939;26;20333;-86
2024/04/21 07:59:41;;;;;;;10.18;1.85;;;18.20;49.90;;;;;;5517915;26;20216;-84
2024/04/21 08:02:11;;;;;;;10.57;1.50;;;18.30;49.90;;;;;;5425159;26;20226;-86
2024/04/21 08:04:39;;;;;;;10.93;1.77;;;18.30;49.80;;;;;;5429952;26;20230;-87
2024/04/21 08:07:26;;;;;;;11.23;1.80;;;18.30;50.30;;;;;;5430573;26;20311;-85
2024/04/21 08:12:58;;;;;;;14.98;1.85;;;18.30;49.60;;;;;;5299535;27;20226;-86
2024/04/21 08:15:28;;;;;;;9.20;1.40;;;18.30;50.00;;;;;;5317315;27;20242;-86
2024/04/21 08:18:15;;;;;;;13.93;1.70;;;18.30;50.30;;;;;;5319379;27;20227;-86
2024/04/21 08:21:04;;;;;;;16.30;1.75;;;18.40;50.30;;;;;;5314985;27;20264;-87
2024/04/21 08:23:30;;;;;;;10.88;1.73;;;18.30;51.30;;;;;;5318874;27;20265;-84
2024/04/21 08:26:03;;;;;;;10.23;1.83;;;18.30;50.70;;;;;;5289190;27;20811;-86
2024/04/21 08:28:29;;;;;;;11.55;1.63;;;18.30;50.60;;;;;;5349599;26;20280;-82
2024/04/21 08:31:04;;;;;;;7.85;1.30;;;18.40;50.70;;;;;;5325605;26;20221;-85
2024/04/21 08:33:32;;;;;;;7.45;1.30;;;18.40;50.40;;;;;;5322793;26;20220;-85
2024/04/21 08:36:00;;;;;;;10.00;1.80;;;18.40;50.30;;;;;;5323830;26;20217;-86
2024/04/21 08:38:29;;;;;;;5.68;1.58;;;18.40;50.50;;;;;;5290006;26;20250;-86
2024/04/21 08:41:11;;;;;;;11.63;1.77;;;18.50;49.70;;;;;;5356903;26;20220;-86
2024/04/21 08:43:47;;;;;;;6.03;1.50;;;18.50;49.80;;;;;;5384449;26;20220;-86
2024/04/21 08:46:18;;;;;;;8.40;1.70;;;18.60;49.90;;;;;;5354231;26;20791;-86
2024/04/21 08:48:52;;;;;;;9.68;1.90;;;18.60;50.10;;;;;;5352907;26;20220;-85
2024/04/21 08:51:39;;;;;;;12.63;1.88;;;18.60;49.50;;;;;;5379454;26;20271;-85
2024/04/21 08:54:14;;;;;;;4.45;1.48;;;18.60;49.70;;;;;;5382902;26;20738;-86
2024/04/21 08:56:53;;;;;;;10.90;1.52;;;18.60;49.80;;;;;;5383934;26;20357;-85
2024/04/21 08:59:32;;;;;;;12.80;1.40;;;18.60;49.90;;;;;;5357145;26;20286;-86
2024/04/21 09:02:20;;;;;;;11.63;1.85;;;18.60;50.40;;;;;;5384429;26;20290;-85
2024/04/21 09:05:12;;;;;;;6.30;1.52;;;18.50;50.90;;;;;;5350014;26;20305;-86
2024/04/21 09:08:03;;;;;;;8.52;1.50;;;18.40;51.20;;;;;;5362764;26;20219;-85
2024/04/21 09:10:40;;;;;;;7.07;1.88;;;18.40;51.40;;;;;;5388634;26;20249;-86
2024/04/21 09:13:11;;;;;;;5.97;1.50;;;18.30;51.40;;;;;;5356486;26;20216;-86
2024/04/21 09:15:38;;;;;;;6.10;1.60;;;18.20;50.50;;;;;;5356035;26;20331;-86
2024/04/21 09:18:24;;;;;;;7.47;1.70;;;18.30;51.20;;;;;;5355149;26;20290;-86
2024/04/21 09:20:55;;;;;;;9.60;1.60;;;18.30;50.90;;;;;;5299781;26;20703;-85
2024/04/21 09:23:24;;;;;;;8.00;1.58;;;18.30;51.10;;;;;;5324995;26;20601;-86
2024/04/21 09:25:50;;;;;;;6.40;1.40;;;18.30;51.30;;;;;;5290636;26;20247;-86
2024/04/21 09:28:18;;;;;;;10.45;1.63;;;18.20;51.50;;;;;;5317426;26;20285;-85
2024/04/21 09:30:46;;;;;;;9.27;1.40;;;18.20;51.80;;;;;;5346255;26;20276;-87
2024/04/21 09:33:25;;;;;;;8.65;1.52;;;18.20;52.00;;;;;;5301244;27;20238;-85
2024/04/21 09:35:53;;;;;;;9.25;1.63;;;18.20;52.00;;;;;;5257675;27;20253;-85
2024/04/21 09:38:19;;;;;;;8.15;1.55;;;18.30;51.50;;;;;;5366875;26;20695;-86
2024/04/21 09:40:46;;;;;;;6.03;1.70;;;18.40;50.80;;;;;;5394897;26;20408;-86
2024/04/21 09:43:17;;;;;;;9.45;1.55;;;18.30;50.80;;;;;;5390355;26;20231;-86
2024/04/21 09:45:43;;;;;;;6.93;1.35;;;18.40;51.40;;;;;;5422299;26;20289;-86
2024/04/21 09:48:09;;;;;;;6.63;1.38;;;18.40;51.70;;;;;;5364170;26;20230;-86
2024/04/21 09:50:42;;;;;;;6.35;1.45;;;18.40;52.10;;;;;;5456840;26;20381;-87
2024/04/21 09:53:11;;;;;;;7.20;1.30;;;18.40;50.90;;;;;;5426190;26;20233;-85
2024/04/21 09:55:39;;;;;;;6.00;1.55;;;18.40;51.50;;;;;;5391700;26;20228;-86
2024/04/21 09:58:07;;;;;;;8.43;1.20;;;18.40;52.00;;;;;;5463877;26;20218;-85
2024/04/21 10:00:43;;;;;;;8.05;2.03;;;18.40;51.60;;;;;;5433577;26;20228;-85
2024/04/21 10:03:09;;;;;;;4.85;1.60;;;18.50;51.90;;;;;;5410023;26;20251;-86
2024/04/21 10:05:36;;;;;;;7.03;1.60;;;18.50;51.20;;;;;;5463485;26;20699;-86
2024/04/21 10:08:06;;;;;;;5.50;1.30;;;18.50;52.40;;;;;;5403705;26;20221;-85
2024/04/21 10:10:34;;;;;;;5.50;1.50;;;18.50;51.00;;;;;;5434125;26;20299;-85
2024/04/21 10:13:00;;;;;;;5.18;1.33;;;18.60;51.80;;;;;;5402240;26;20251;-86
2024/04/21 10:15:27;;;;;;;2.00;1.20;;;18.50;51.50;;;;;;5434032;26;20213;-84
2024/04/21 10:17:57;;;;;;;8.18;1.60;;;18.60;51.00;;;;;;5402438;26;20220;-84
2024/04/21 10:20:32;;;;;;;11.00;1.60;;;18.60;51.20;;;;;;5434051;26;20209;-85
2024/04/21 10:23:00;;;;;;;5.68;1.60;;;18.60;52.60;;;;;;5402267;26;20278;-84
2024/04/21 10:25:35;;;;;;;3.58;1.40;;;18.50;52.40;;;;;;5401083;26;20247;-85
2024/04/21 10:28:11;;;;;;;4.43;1.30;;;18.40;52.50;;;;;;5432728;26;20333;-85
2024/04/21 10:30:37;;;;;;;9.27;1.40;;;18.40;52.20;;;;;;5463875;26;20213;-85
2024/04/21 10:33:04;;;;;;;4.57;1.20;;;18.50;52.50;;;;;;5494021;26;20264;-84
2024/04/21 10:35:35;;;;;;;8.20;1.33;;;18.50;52.60;;;;;;5462379;26;20541;-84
2024/04/21 10:38:16;;;;;;;3.70;1.30;;;18.50;52.30;;;;;;5463373;26;20225;-85
2024/04/21 10:40:47;;;;;;;5.47;1.33;;;18.50;52.30;;;;;;5497153;26;20268;-84
2024/04/21 10:43:21;;;;;;;5.20;1.30;;;18.50;51.80;;;;;;5466411;26;20221;-84
2024/04/21 10:45:55;;;;;;;4.05;1.20;;;18.50;52.20;;;;;;5428537;26;20254;-86
2024/04/21 10:48:22;;;;;;;5.28;1.20;;;18.50;52.40;;;;;;5396377;26;20214;-84
2024/04/21 10:50:51;;;;;;;3.40;1.00;;;18.50;52.50;;;;;;5398552;26;20332;-85
2024/04/21 10:53:16;;;;;;;7.97;1.27;;;18.50;52.40;;;;;;5396265;26;20218;-85
2024/04/21 10:55:52;;;;;;;6.38;1.30;;;18.50;52.10;;;;;;5395980;26;20253;-85
2024/04/21 10:59:05;;;;;;;8.57;1.27;;;18.50;52.50;;;;;;5426216;26;20233;-84
2024/04/21 11:01:39;;;;;;;7.28;1.40;;;18.50;52.60;;;;;;5455944;26;20724;-85
2024/04/21 11:04:05;;;;;;;6.13;1.17;;;18.50;52.30;;;;;;5427949;26;20744;-85
2024/04/21 11:06:37;;;;;;;7.10;1.42;;;18.50;52.70;;;;;;5427996;26;20249;-85
2024/04/21 11:09:03;;;;;;;9.48;1.80;;;18.60;52.40;;;;;;5393349;26;20235;-84
2024/04/21 11:11:29;;;;;;;7.97;1.40;;;18.50;53.00;;;;;;5420299;26;20219;-85
2024/04/21 11:13:56;;;;;;;4.10;1.10;;;18.50;53.10;;;;;;5391673;26;20788;-84
2024/04/21 11:16:28;;;;;;;6.80;1.10;;;18.50;52.50;;;;;;5367453;26;20218;-85
2024/04/21 11:18:57;;;;;;;2.58;1.08;;;18.50;52.40;;;;;;5341665;26;20277;-85
2024/04/21 11:21:24;;;;;;;6.43;1.42;;;18.50;53.00;;;;;;5396514;26;20630;-85
2024/04/21 11:23:50;;;;;;;2.97;0.98;;;18.50;53.20;;;;;;5396997;26;20217;-86
2024/04/21 11:26:19;;;;;;;5.60;1.42;;;18.40;53.30;;;;;;5425687;26;20222;-85
2024/04/21 11:28:47;;;;;;;4.18;1.13;;;18.40;53.30;;;;;;5424170;26;20264;-82
2024/04/21 11:31:16;;;;;;;5.50;1.40;;;18.50;53.00;;;;;;5425529;26;20743;-84
2024/04/21 11:33:42;;;;;;;6.00;1.00;;;18.40;52.50;;;;;;5398432;26;20218;-86
2024/04/21 11:36:11;;;;;;;4.97;1.10;;;18.50;53.30;;;;;;5397682;26;20215;-86
2024/04/21 11:38:38;;;;;;;5.70;1.13;;;18.50;53.00;;;;;;5398490;26;20219;-86
2024/04/21 11:41:05;;;;;;;4.80;1.02;;;18.50;52.40;;;;;;5459678;26;20769;-84
2024/04/21 11:43:30;;;;;;;5.10;1.40;;;18.60;52.40;;;;;;5491072;26;20213;-87
2024/04/21 11:46:00;;;;;;;4.40;1.15;;;18.50;53.00;;;;;;5491358;26;20224;-84
2024/04/21 11:48:31;;;;;;;5.05;1.30;;;18.60;52.10;;;;;;5461512;26;20672;-85
2024/04/21 11:50:57;;;;;;;4.10;1.35;;;18.60;52.80;;;;;;5461729;26;20624;-86
2024/04/21 11:53:25;;;;;;;3.80;1.10;;;18.60;53.00;;;;;;5489995;26;20210;-87
2024/04/21 11:55:54;;;;;;;5.35;1.33;;;18.60;51.70;;;;;;5489572;26;20221;-85
2024/04/21 11:58:23;;;;;;;9.40;1.40;;;18.60;52.90;;;;;;5428515;26;20257;-85
2024/04/21 12:00:50;;;;;;;5.32;1.02;;;18.50;52.10;;;;;;5388687;26;20227;-86
2024/04/21 12:03:27;;;;;;;6.15;1.33;;;18.60;52.00;;;;;;5362854;26;20219;-86
2024/04/21 12:06:06;;;;;;;;;;;;;;;;;;;;;
2024/04/21 12:08:45;;;;;;;3.10;1.10;;;18.60;51.90;;;;;;5357846;26;20253;-87
2024/04/21 12:11:16;;;;;;;5.30;1.10;;;18.70;51.60;;;;;;5338222;26;20230;-86
2024/04/21 12:13:44;;;;;;;7.00;1.35;;;18.60;52.60;;;;;;5321564;26;20327;-87
2024/04/21 12:16:21;;;;;;;5.38;1.17;;;18.70;52.70;;;;;;5351477;26;20280;-86
2024/04/21 12:18:51;;;;;;;3.50;1.10;;;18.60;51.80;;;;;;5365263;26;20286;-86
2024/04/21 12:21:26;;;;;;;3.75;1.60;;;18.60;51.50;;;;;;5358542;26;20224;-87
2024/04/21 12:23:57;;;;;;;3.47;1.10;;;18.60;50.40;;;;;;5360375;26;20777;-87
2024/04/21 12:26:23;;;;;;;2.35;0.75;;;18.60;49.80;;;;;;5332100;26;20228;-86
2024/04/21 12:29:11;;;;;;;2.35;0.90;;;18.60;50.00;;;;;;5367291;26;20273;-87
2024/04/21 12:31:42;;;;;;;3.92;1.30;;;18.60;50.80;;;;;;5279083;27;20281;-87
2024/04/21 12:34:12;;;;;;;3.13;1.20;;;18.50;51.90;;;;;;5283221;26;20311;-87
2024/04/21 12:36:42;;;;;;;6.50;1.30;;;18.50;51.60;;;;;;5283925;27;20223;-88
2024/04/21 12:39:09;;;;;;;3.03;1.00;;;18.50;51.90;;;;;;5333106;26;20232;-86
2024/04/21 12:41:36;;;;;;;1.23;0.80;;;18.50;52.90;;;;;;5352918;26;20241;-86
2024/04/21 12:44:10;;;;;;;4.28;1.10;;;18.50;51.90;;;;;;5350559;26;20225;-87
2024/04/21 12:46:37;;;;;;;4.20;1.38;;;18.50;50.70;;;;;;5352283;26;20261;-85
2024/04/21 12:49:05;;;;;;;3.85;1.30;;;18.60;52.90;;;;;;5324641;26;20226;-85
2024/04/21 12:51:30;;;;;;;1.83;0.98;;;18.60;52.10;;;;;;5251516;27;20231;-86
2024/04/21 12:53:56;;;;;;;6.50;1.20;;;18.70;50.80;;;;;;5278568;27;20254;-86
2024/04/21 12:56:23;;;;;;;2.70;0.95;;;18.80;50.40;;;;;;5247408;27;20255;-85
2024/04/21 12:58:49;;;;;;;4.00;1.30;;;18.80;51.10;;;;;;5250977;27;20228;-85